sensor_id;sensor_type;location;lat;lon;timestamp;temperature;humidity
43946;DHT22;29599;51.196;4.428;2022-10-16T00:01:26;13.90;99.90
43946;DHT22;29599;51.196;4.428;2022-10-16T00:03:52;13.90;99.90
43946;DHT22;29599;51.196;4.428;2022-10-16T00:06:19;13.90;99.90
43946;DHT22;29599;51.196;4.428;2022-10-16T00:08:46;13.90;99.90
43946;DHT22;29599;51.196;4.428;2022-10-16T00:11:12;13.90;99.90
43946;DHT22;29599;51.196;4.428;2022-10-16T00:13:40;13.90;99.90
43946;DHT22;29599;51.196;4.428;2022-10-16T00:16:06;13.90;99.90
43946;DHT22;29599;51.196;4.428;2022-10-16T00:18:33;13.90;99.90
43946;DHT22;29599;51.196;4.428;2022-10-16T00:21:05;13.90;99.90
43946;DHT22;29599;51.196;4.428;2022-10-16T00:23:32;13.90;99.90
43946;DHT22;29599;51.196;4.428;2022-10-16T00:26:00;13.90;99.90
43946;DHT22;29599;51.196;4.428;2022-10-16T00:28:26;13.90;99.90
43946;DHT22;29599;51.196;4.428;2022-10-16T00:30:52;13.90;99.90
43946;DHT22;29599;51.196;4.428;2022-10-16T00:33:18;13.90;99.90
43946;DHT22;29599;51.196;4.428;2022-10-16T00:35:43;13.90;99.90
43946;DHT22;29599;51.196;4.428;2022-10-16T00:38:09;13.90;99.90
43946;DHT22;29599;51.196;4.428;2022-10-16T00:40:35;13.90;99.90
43946;DHT22;29599;51.196;4.428;2022-10-16T00:43:00;13.90;99.90
43946;DHT22;29599;51.196;4.428;2022-10-16T00:45:26;13.90;99.90
43946;DHT22;29599;51.196;4.428;2022-10-16T00:47:52;13.90;99.90
43946;DHT22;29599;51.196;4.428;2022-10-16T00:50:27;13.90;99.90
43946;DHT22;29599;51.196;4.428;2022-10-16T00:52:55;13.80;99.90
43946;DHT22;29599;51.196;4.428;2022-10-16T00:55:20;13.80;99.90
43946;DHT22;29599;51.196;4.428;2022-10-16T00:57:47;13.80;99.90
43946;DHT22;29599;51.196;4.428;2022-10-16T01:00:19;13.80;99.90
43946;DHT22;29599;51.196;4.428;2022-10-16T01:02:58;13.80;99.90
43946;DHT22;29599;51.196;4.428;2022-10-16T01:05:33;13.70;99.90
43946;DHT22;29599;51.196;4.428;2022-10-16T01:08:13;13.80;99.90
43946;DHT22;29599;51.196;4.428;2022-10-16T01:10:48;13.80;99.90
43946;DHT22;29599;51.196;4.428;2022-10-16T01:13:22;13.80;99.90
43946;DHT22;29599;51.196;4.428;2022-10-16T01:16:17;13.80;99.90
43946;DHT22;29599;51.196;4.428;2022-10-16T01:19:20;13.80;99.90
43946;DHT22;29599;51.196;4.428;2022-10-16T01:21:53;13.80;99.90
43946;DHT22;29599;51.196;4.428;2022-10-16T01:29:31;13.70;99.90
43946;DHT22;29599;51.196;4.428;2022-10-16T01:32:05;13.70;99.90
43946;DHT22;29599;51.196;4.428;2022-10-16T01:34:35;13.70;99.90
43946;DHT22;29599;51.196;4.428;2022-10-16T01:37:05;13.70;99.90
43946;DHT22;29599;51.196;4.428;2022-10-16T01:39:35;13.70;99.90
43946;DHT22;29599;51.196;4.428;2022-10-16T01:42:21;13.70;99.90
43946;DHT22;29599;51.196;4.428;2022-10-16T01:44:51;13.60;99.90
43946;DHT22;29599;51.196;4.428;2022-10-16T01:47:21;13.60;99.90
43946;DHT22;29599;51.196;4.428;2022-10-16T01:49:48;13.60;99.90
43946;DHT22;29599;51.196;4.428;2022-10-16T01:52:17;13.50;99.90
43946;DHT22;29599;51.196;4.428;2022-10-16T01:54:47;13.50;99.90
43946;DHT22;29599;51.196;4.428;2022-10-16T01:57:15;13.50;99.90
43946;DHT22;29599;51.196;4.428;2022-10-16T01:59:48;13.50;99.90
43946;DHT22;29599;51.196;4.428;2022-10-16T02:02:17;13.50;99.90
43946;DHT22;29599;51.196;4.428;2022-10-16T02:04:51;13.50;99.90
43946;DHT22;29599;51.196;4.428;2022-10-16T02:07:18;13.50;99.90
43946;DHT22;29599;51.196;4.428;2022-10-16T02:09:44;13.50;99.90
43946;DHT22;29599;51.196;4.428;2022-10-16T02:12:19;13.50;99.90
43946;DHT22;29599;51.196;4.428;2022-10-16T02:14:46;13.50;99.90
43946;DHT22;29599;51.196;4.428;2022-10-16T02:17:14;13.50;99.90
43946;DHT22;29599;51.196;4.428;2022-10-16T02:19:40;13.50;99.90
43946;DHT22;29599;51.196;4.428;2022-10-16T02:22:09;13.50;99.90
43946;DHT22;29599;51.196;4.428;2022-10-16T02:24:51;13.50;99.90
43946;DHT22;29599;51.196;4.428;2022-10-16T02:30:39;13.50;99.90
43946;DHT22;29599;51.196;4.428;2022-10-16T02:33:08;13.50;99.90
43946;DHT22;29599;51.196;4.428;2022-10-16T02:35:36;13.50;99.90
43946;DHT22;29599;51.196;4.428;2022-10-16T02:38:02;13.40;99.90
43946;DHT22;29599;51.196;4.428;2022-10-16T02:40:28;13.40;99.90
43946;DHT22;29599;51.196;4.428;2022-10-16T02:42:54;13.40;99.90
43946;DHT22;29599;51.196;4.428;2022-10-16T02:45:22;13.40;99.90
43946;DHT22;29599;51.196;4.428;2022-10-16T02:47:49;13.40;99.90
43946;DHT22;29599;51.196;4.428;2022-10-16T02:50:15;13.40;99.90
43946;DHT22;29599;51.196;4.428;2022-10-16T02:52:41;13.40;99.90
43946;DHT22;29599;51.196;4.428;2022-10-16T02:55:06;13.40;99.90
43946;DHT22;29599;51.196;4.428;2022-10-16T02:57:32;13.40;99.90
43946;DHT22;29599;51.196;4.428;2022-10-16T02:59:58;13.40;99.90
43946;DHT22;29599;51.196;4.428;2022-10-16T03:02:24;13.40;99.90
43946;DHT22;29599;51.196;4.428;2022-10-16T03:04:49;13.40;99.90
43946;DHT22;29599;51.196;4.428;2022-10-16T03:07:15;13.40;99.90
43946;DHT22;29599;51.196;4.428;2022-10-16T03:09:40;13.50;99.90
43946;DHT22;29599;51.196;4.428;2022-10-16T03:12:06;13.40;99.90
43946;DHT22;29599;51.196;4.428;2022-10-16T03:14:32;13.50;99.90
43946;DHT22;29599;51.196;4.428;2022-10-16T03:16:58;13.40;99.90
43946;DHT22;29599;51.196;4.428;2022-10-16T03:19:23;13.40;99.90
43946;DHT22;29599;51.196;4.428;2022-10-16T03:21:49;13.40;99.90
43946;DHT22;29599;51.196;4.428;2022-10-16T03:24:14;13.30;99.90
43946;DHT22;29599;51.196;4.428;2022-10-16T03:26:40;13.40;99.90
43946;DHT22;29599;51.196;4.428;2022-10-16T03:29:06;13.40;99.90
43946;DHT22;29599;51.196;4.428;2022-10-16T03:31:32;13.50;99.90
43946;DHT22;29599;51.196;4.428;2022-10-16T03:33:57;13.40;99.90
43946;DHT22;29599;51.196;4.428;2022-10-16T03:36:23;13.40;99.90
43946;DHT22;29599;51.196;4.428;2022-10-16T03:38:49;13.40;99.90
43946;DHT22;29599;51.196;4.428;2022-10-16T03:41:14;13.50;99.90
43946;DHT22;29599;51.196;4.428;2022-10-16T03:43:40;13.50;99.90
43946;DHT22;29599;51.196;4.428;2022-10-16T03:46:06;13.50;99.90
43946;DHT22;29599;51.196;4.428;2022-10-16T03:48:31;13.50;99.90
43946;DHT22;29599;51.196;4.428;2022-10-16T03:50:58;13.40;99.90
43946;DHT22;29599;51.196;4.428;2022-10-16T03:53:23;13.40;99.90
43946;DHT22;29599;51.196;4.428;2022-10-16T03:55:49;13.40;99.90
43946;DHT22;29599;51.196;4.428;2022-10-16T03:58:15;13.40;99.90
43946;DHT22;29599;51.196;4.428;2022-10-16T04:00:44;13.40;99.90
43946;DHT22;29599;51.196;4.428;2022-10-16T04:03:10;13.40;99.90
43946;DHT22;29599;51.196;4.428;2022-10-16T04:05:36;13.40;99.90
43946;DHT22;29599;51.196;4.428;2022-10-16T04:08:02;13.40;99.90
43946;DHT22;29599;51.196;4.428;2022-10-16T04:10:28;13.40;99.90
43946;DHT22;29599;51.196;4.428;2022-10-16T04:12:53;13.40;99.90
43946;DHT22;29599;51.196;4.428;2022-10-16T04:15:22;13.40;99.90
43946;DHT22;29599;51.196;4.428;2022-10-16T04:17:48;13.50;99.90
43946;DHT22;29599;51.196;4.428;2022-10-16T04:20:14;13.40;99.90
43946;DHT22;29599;51.196;4.428;2022-10-16T04:22:39;13.40;99.90
43946;DHT22;29599;51.196;4.428;2022-10-16T04:25:05;13.40;99.90
43946;DHT22;29599;51.196;4.428;2022-10-16T04:27:31;13.40;99.90
43946;DHT22;29599;51.196;4.428;2022-10-16T04:29:58;13.40;99.90
43946;DHT22;29599;51.196;4.428;2022-10-16T04:32:23;13.40;99.90
43946;DHT22;29599;51.196;4.428;2022-10-16T04:34:49;13.40;99.90
43946;DHT22;29599;51.196;4.428;2022-10-16T04:37:14;13.40;99.90
43946;DHT22;29599;51.196;4.428;2022-10-16T04:39:40;13.30;99.90
43946;DHT22;29599;51.196;4.428;2022-10-16T04:42:06;13.30;99.90
43946;DHT22;29599;51.196;4.428;2022-10-16T04:44:31;13.30;99.90
43946;DHT22;29599;51.196;4.428;2022-10-16T04:46:57;13.30;99.90
43946;DHT22;29599;51.196;4.428;2022-10-16T04:49:23;13.30;99.90
43946;DHT22;29599;51.196;4.428;2022-10-16T04:51:48;13.30;99.90
43946;DHT22;29599;51.196;4.428;2022-10-16T04:54:14;13.20;99.90
43946;DHT22;29599;51.196;4.428;2022-10-16T04:56:39;13.30;99.90
43946;DHT22;29599;51.196;4.428;2022-10-16T04:59:15;13.30;99.90
43946;DHT22;29599;51.196;4.428;2022-10-16T05:01:41;13.30;99.90
43946;DHT22;29599;51.196;4.428;2022-10-16T05:04:06;13.30;99.90
43946;DHT22;29599;51.196;4.428;2022-10-16T05:06:32;13.30;99.90
43946;DHT22;29599;51.196;4.428;2022-10-16T05:08:58;13.30;99.90
43946;DHT22;29599;51.196;4.428;2022-10-16T05:11:23;13.30;99.90
43946;DHT22;29599;51.196;4.428;2022-10-16T05:13:49;13.30;99.90
43946;DHT22;29599;51.196;4.428;2022-10-16T05:16:14;13.30;99.90
43946;DHT22;29599;51.196;4.428;2022-10-16T05:18:40;13.20;99.90
43946;DHT22;29599;51.196;4.428;2022-10-16T05:21:06;13.20;99.90
43946;DHT22;29599;51.196;4.428;2022-10-16T05:23:31;13.20;99.90
43946;DHT22;29599;51.196;4.428;2022-10-16T05:25:58;13.10;99.90
43946;DHT22;29599;51.196;4.428;2022-10-16T05:28:25;13.10;99.90
43946;DHT22;29599;51.196;4.428;2022-10-16T05:30:51;13.10;99.90
43946;DHT22;29599;51.196;4.428;2022-10-16T05:33:16;13.10;99.90
43946;DHT22;29599;51.196;4.428;2022-10-16T05:35:42;13.10;99.90
43946;DHT22;29599;51.196;4.428;2022-10-16T05:38:09;13.10;99.90
43946;DHT22;29599;51.196;4.428;2022-10-16T05:40:34;13.10;99.90
43946;DHT22;29599;51.196;4.428;2022-10-16T05:43:00;13.10;99.90
43946;DHT22;29599;51.196;4.428;2022-10-16T05:45:26;13.10;99.90
43946;DHT22;29599;51.196;4.428;2022-10-16T05:47:51;13.10;99.90
43946;DHT22;29599;51.196;4.428;2022-10-16T05:50:17;13.10;99.90
43946;DHT22;29599;51.196;4.428;2022-10-16T05:52:43;13.20;99.90
43946;DHT22;29599;51.196;4.428;2022-10-16T05:55:08;13.10;99.90
43946;DHT22;29599;51.196;4.428;2022-10-16T05:57:34;13.20;99.90
43946;DHT22;29599;51.196;4.428;2022-10-16T05:59:59;13.10;99.90
43946;DHT22;29599;51.196;4.428;2022-10-16T06:02:25;13.10;99.90
43946;DHT22;29599;51.196;4.428;2022-10-16T06:04:54;13.20;99.90
43946;DHT22;29599;51.196;4.428;2022-10-16T06:07:20;13.20;99.90
43946;DHT22;29599;51.196;4.428;2022-10-16T06:09:48;13.20;99.90
43946;DHT22;29599;51.196;4.428;2022-10-16T06:12:15;13.20;99.90
43946;DHT22;29599;51.196;4.428;2022-10-16T06:14:41;13.30;99.90
43946;DHT22;29599;51.196;4.428;2022-10-16T06:17:06;13.30;99.90
43946;DHT22;29599;51.196;4.428;2022-10-16T06:19:32;13.30;99.90
43946;DHT22;29599;51.196;4.428;2022-10-16T06:21:57;13.20;99.90
43946;DHT22;29599;51.196;4.428;2022-10-16T06:24:24;13.30;99.90
43946;DHT22;29599;51.196;4.428;2022-10-16T06:26:49;13.30;99.90
43946;DHT22;29599;51.196;4.428;2022-10-16T06:29:15;13.30;99.90
43946;DHT22;29599;51.196;4.428;2022-10-16T06:31:41;13.30;99.90
43946;DHT22;29599;51.196;4.428;2022-10-16T06:34:09;13.30;99.90
43946;DHT22;29599;51.196;4.428;2022-10-16T06:36:36;13.30;99.90
43946;DHT22;29599;51.196;4.428;2022-10-16T06:39:02;13.30;99.90
43946;DHT22;29599;51.196;4.428;2022-10-16T06:41:28;13.20;99.90
43946;DHT22;29599;51.196;4.428;2022-10-16T06:43:53;13.30;99.90
43946;DHT22;29599;51.196;4.428;2022-10-16T06:46:21;13.30;99.90
43946;DHT22;29599;51.196;4.428;2022-10-16T06:48:47;13.30;99.90
43946;DHT22;29599;51.196;4.428;2022-10-16T06:51:18;13.30;99.90
43946;DHT22;29599;51.196;4.428;2022-10-16T06:53:49;13.30;99.90
43946;DHT22;29599;51.196;4.428;2022-10-16T06:56:24;13.30;99.90
43946;DHT22;29599;51.196;4.428;2022-10-16T06:58:51;13.30;99.90
43946;DHT22;29599;51.196;4.428;2022-10-16T07:01:18;13.30;99.90
43946;DHT22;29599;51.196;4.428;2022-10-16T07:03:45;13.30;99.90
43946;DHT22;29599;51.196;4.428;2022-10-16T07:06:13;13.30;99.90
43946;DHT22;29599;51.196;4.428;2022-10-16T07:08:41;13.30;99.90
43946;DHT22;29599;51.196;4.428;2022-10-16T07:11:09;13.30;99.90
43946;DHT22;29599;51.196;4.428;2022-10-16T07:13:36;13.30;99.90
43946;DHT22;29599;51.196;4.428;2022-10-16T07:16:10;13.40;99.90
43946;DHT22;29599;51.196;4.428;2022-10-16T07:18:36;13.40;99.90
43946;DHT22;29599;51.196;4.428;2022-10-16T07:21:09;13.40;99.90
43946;DHT22;29599;51.196;4.428;2022-10-16T07:23:35;13.40;99.90
43946;DHT22;29599;51.196;4.428;2022-10-16T07:26:01;13.50;99.90
43946;DHT22;29599;51.196;4.428;2022-10-16T07:28:27;13.50;99.90
43946;DHT22;29599;51.196;4.428;2022-10-16T07:30:53;13.50;99.90
43946;DHT22;29599;51.196;4.428;2022-10-16T07:33:18;13.60;99.90
43946;DHT22;29599;51.196;4.428;2022-10-16T07:35:49;13.60;99.90
43946;DHT22;29599;51.196;4.428;2022-10-16T07:38:16;13.60;99.90
43946;DHT22;29599;51.196;4.428;2022-10-16T07:40:41;13.60;99.90
43946;DHT22;29599;51.196;4.428;2022-10-16T07:43:07;13.60;99.90
43946;DHT22;29599;51.196;4.428;2022-10-16T07:45:32;13.70;99.90
43946;DHT22;29599;51.196;4.428;2022-10-16T07:47:58;13.70;99.90
43946;DHT22;29599;51.196;4.428;2022-10-16T07:50:24;13.80;99.90
43946;DHT22;29599;51.196;4.428;2022-10-16T07:52:49;13.70;99.90
43946;DHT22;29599;51.196;4.428;2022-10-16T07:55:15;13.80;99.90
43946;DHT22;29599;51.196;4.428;2022-10-16T07:57:40;13.80;99.90
43946;DHT22;29599;51.196;4.428;2022-10-16T08:00:06;13.70;99.90
43946;DHT22;29599;51.196;4.428;2022-10-16T08:02:32;13.80;99.90
43946;DHT22;29599;51.196;4.428;2022-10-16T08:04:58;13.90;99.90
43946;DHT22;29599;51.196;4.428;2022-10-16T08:07:23;14.00;99.90
43946;DHT22;29599;51.196;4.428;2022-10-16T08:09:49;14.00;99.90
43946;DHT22;29599;51.196;4.428;2022-10-16T08:12:17;14.00;99.90
43946;DHT22;29599;51.196;4.428;2022-10-16T08:14:42;14.10;99.90
43946;DHT22;29599;51.196;4.428;2022-10-16T08:17:08;14.10;99.90
43946;DHT22;29599;51.196;4.428;2022-10-16T08:19:33;14.20;99.90
43946;DHT22;29599;51.196;4.428;2022-10-16T08:22:00;14.20;99.90
43946;DHT22;29599;51.196;4.428;2022-10-16T08:24:26;14.30;99.90
43946;DHT22;29599;51.196;4.428;2022-10-16T08:26:53;14.30;99.90
43946;DHT22;29599;51.196;4.428;2022-10-16T08:29:19;14.40;99.90
43946;DHT22;29599;51.196;4.428;2022-10-16T08:31:45;14.40;99.90
43946;DHT22;29599;51.196;4.428;2022-10-16T08:34:10;14.40;99.90
43946;DHT22;29599;51.196;4.428;2022-10-16T08:36:36;14.50;99.90
43946;DHT22;29599;51.196;4.428;2022-10-16T08:39:02;14.50;99.90
43946;DHT22;29599;51.196;4.428;2022-10-16T08:41:48;14.50;99.90
43946;DHT22;29599;51.196;4.428;2022-10-16T08:44:48;14.60;99.90
43946;DHT22;29599;51.196;4.428;2022-10-16T08:47:24;14.70;99.90
43946;DHT22;29599;51.196;4.428;2022-10-16T08:50:05;14.70;99.90
43946;DHT22;29599;51.196;4.428;2022-10-16T08:52:35;14.70;99.90
43946;DHT22;29599;51.196;4.428;2022-10-16T08:55:04;14.80;99.90
43946;DHT22;29599;51.196;4.428;2022-10-16T08:57:30;14.80;99.90
43946;DHT22;29599;51.196;4.428;2022-10-16T09:00:00;14.90;99.90
43946;DHT22;29599;51.196;4.428;2022-10-16T09:02:49;14.90;99.90
43946;DHT22;29599;51.196;4.428;2022-10-16T09:08:10;15.10;99.90
43946;DHT22;29599;51.196;4.428;2022-10-16T09:16:30;15.40;99.90
43946;DHT22;29599;51.196;4.428;2022-10-16T09:21:36;15.50;99.90
43946;DHT22;29599;51.196;4.428;2022-10-16T09:24:18;15.70;99.90
43946;DHT22;29599;51.196;4.428;2022-10-16T09:26:45;15.80;99.90
43946;DHT22;29599;51.196;4.428;2022-10-16T09:29:13;16.00;99.90
43946;DHT22;29599;51.196;4.428;2022-10-16T09:31:39;16.00;99.90
43946;DHT22;29599;51.196;4.428;2022-10-16T09:34:08;16.10;99.90
43946;DHT22;29599;51.196;4.428;2022-10-16T09:36:44;16.20;99.90
43946;DHT22;29599;51.196;4.428;2022-10-16T09:39:11;16.30;99.90
43946;DHT22;29599;51.196;4.428;2022-10-16T09:41:39;16.40;99.90
43946;DHT22;29599;51.196;4.428;2022-10-16T09:44:26;16.60;99.90
43946;DHT22;29599;51.196;4.428;2022-10-16T09:47:14;16.60;99.90
43946;DHT22;29599;51.196;4.428;2022-10-16T09:50:00;16.80;99.90
43946;DHT22;29599;51.196;4.428;2022-10-16T09:52:32;16.90;99.90
43946;DHT22;29599;51.196;4.428;2022-10-16T09:55:00;17.00;99.90
43946;DHT22;29599;51.196;4.428;2022-10-16T09:57:26;17.10;99.90
43946;DHT22;29599;51.196;4.428;2022-10-16T09:59:54;17.20;99.90
43946;DHT22;29599;51.196;4.428;2022-10-16T10:02:29;17.20;99.90
43946;DHT22;29599;51.196;4.428;2022-10-16T10:04:55;17.20;99.90
43946;DHT22;29599;51.196;4.428;2022-10-16T10:07:27;17.10;99.90
43946;DHT22;29599;51.196;4.428;2022-10-16T10:09:54;17.30;99.90
43946;DHT22;29599;51.196;4.428;2022-10-16T10:12:27;17.40;99.90
43946;DHT22;29599;51.196;4.428;2022-10-16T10:14:55;17.30;99.90
43946;DHT22;29599;51.196;4.428;2022-10-16T10:17:27;17.20;99.90
43946;DHT22;29599;51.196;4.428;2022-10-16T10:19:58;17.30;99.90
43946;DHT22;29599;51.196;4.428;2022-10-16T10:22:45;17.50;99.90
43946;DHT22;29599;51.196;4.428;2022-10-16T10:30:24;17.60;99.90
43946;DHT22;29599;51.196;4.428;2022-10-16T10:33:17;17.50;99.90
43946;DHT22;29599;51.196;4.428;2022-10-16T10:35:50;17.30;99.90
43946;DHT22;29599;51.196;4.428;2022-10-16T10:46:50;17.50;99.90
43946;DHT22;29599;51.196;4.428;2022-10-16T11:06:31;16.70;99.90
43946;DHT22;29599;51.196;4.428;2022-10-16T11:09:06;16.60;99.90
43946;DHT22;29599;51.196;4.428;2022-10-16T11:11:40;16.40;99.90
43946;DHT22;29599;51.196;4.428;2022-10-16T11:16:56;16.30;99.90
43946;DHT22;29599;51.196;4.428;2022-10-16T11:19:41;16.30;99.90
43946;DHT22;29599;51.196;4.428;2022-10-16T11:24:59;16.30;99.90
43946;DHT22;29599;51.196;4.428;2022-10-16T11:27:42;16.30;99.90
43946;DHT22;29599;51.196;4.428;2022-10-16T11:30:25;16.30;99.90
43946;DHT22;29599;51.196;4.428;2022-10-16T11:33:09;16.40;99.90
43946;DHT22;29599;51.196;4.428;2022-10-16T11:41:51;16.50;99.90
43946;DHT22;29599;51.196;4.428;2022-10-16T11:44:40;16.60;99.90
43946;DHT22;29599;51.196;4.428;2022-10-16T11:49:59;16.70;99.90
43946;DHT22;29599;51.196;4.428;2022-10-16T11:55:13;16.70;99.90
43946;DHT22;29599;51.196;4.428;2022-10-16T11:58:05;16.60;99.90
43946;DHT22;29599;51.196;4.428;2022-10-16T12:00:43;16.60;99.90
43946;DHT22;29599;51.196;4.428;2022-10-16T12:06:34;16.50;99.90
43946;DHT22;29599;51.196;4.428;2022-10-16T12:09:01;16.50;99.90
43946;DHT22;29599;51.196;4.428;2022-10-16T12:14:07;16.50;99.90
43946;DHT22;29599;51.196;4.428;2022-10-16T12:17:03;16.50;99.90
43946;DHT22;29599;51.196;4.428;2022-10-16T12:19:31;16.40;99.90
43946;DHT22;29599;51.196;4.428;2022-10-16T12:21:59;16.30;99.90
43946;DHT22;29599;51.196;4.428;2022-10-16T12:26:58;16.40;99.90
43946;DHT22;29599;51.196;4.428;2022-10-16T12:29:37;16.40;99.90
43946;DHT22;29599;51.196;4.428;2022-10-16T12:32:05;16.40;99.90
43946;DHT22;29599;51.196;4.428;2022-10-16T12:34:52;16.40;99.90
43946;DHT22;29599;51.196;4.428;2022-10-16T12:37:31;16.40;99.90
43946;DHT22;29599;51.196;4.428;2022-10-16T12:39:59;16.50;99.90
43946;DHT22;29599;51.196;4.428;2022-10-16T12:42:36;16.40;99.90
43946;DHT22;29599;51.196;4.428;2022-10-16T12:45:32;16.40;99.90
43946;DHT22;29599;51.196;4.428;2022-10-16T12:48:17;16.50;99.90
43946;DHT22;29599;51.196;4.428;2022-10-16T12:50:43;16.50;99.90
43946;DHT22;29599;51.196;4.428;2022-10-16T12:53:26;16.50;99.90
43946;DHT22;29599;51.196;4.428;2022-10-16T12:56:19;16.60;99.90
43946;DHT22;29599;51.196;4.428;2022-10-16T13:01:52;16.60;99.90
43946;DHT22;29599;51.196;4.428;2022-10-16T13:07:52;16.60;99.90
43946;DHT22;29599;51.196;4.428;2022-10-16T13:13:38;16.70;99.90
43946;DHT22;29599;51.196;4.428;2022-10-16T13:16:22;16.70;99.90
43946;DHT22;29599;51.196;4.428;2022-10-16T13:19:06;16.80;99.90
43946;DHT22;29599;51.196;4.428;2022-10-16T13:21:51;16.80;99.90
43946;DHT22;29599;51.196;4.428;2022-10-16T13:30:20;16.80;99.90
43946;DHT22;29599;51.196;4.428;2022-10-16T13:32:48;16.80;99.90
43946;DHT22;29599;51.196;4.428;2022-10-16T13:35:23;16.80;99.90
43946;DHT22;29599;51.196;4.428;2022-10-16T13:37:50;16.80;99.90
43946;DHT22;29599;51.196;4.428;2022-10-16T13:40:24;16.80;99.90
43946;DHT22;29599;51.196;4.428;2022-10-16T13:42:51;16.80;99.90
43946;DHT22;29599;51.196;4.428;2022-10-16T13:45:23;16.80;99.90
43946;DHT22;29599;51.196;4.428;2022-10-16T13:48:05;16.80;99.90
43946;DHT22;29599;51.196;4.428;2022-10-16T13:50:30;16.80;99.90
43946;DHT22;29599;51.196;4.428;2022-10-16T13:53:15;16.80;99.90
43946;DHT22;29599;51.196;4.428;2022-10-16T13:55:40;16.90;99.90
43946;DHT22;29599;51.196;4.428;2022-10-16T13:58:13;16.90;99.90
43946;DHT22;29599;51.196;4.428;2022-10-16T14:00:39;16.90;99.90
43946;DHT22;29599;51.196;4.428;2022-10-16T14:03:14;16.90;99.90
43946;DHT22;29599;51.196;4.428;2022-10-16T14:05:57;16.90;99.90
43946;DHT22;29599;51.196;4.428;2022-10-16T14:08:25;16.90;99.90
43946;DHT22;29599;51.196;4.428;2022-10-16T14:10:56;17.00;99.90
43946;DHT22;29599;51.196;4.428;2022-10-16T14:15:53;17.00;99.90
43946;DHT22;29599;51.196;4.428;2022-10-16T14:18:23;16.90;99.90
43946;DHT22;29599;51.196;4.428;2022-10-16T14:20:50;16.90;99.90
43946;DHT22;29599;51.196;4.428;2022-10-16T14:25:46;16.90;99.90
43946;DHT22;29599;51.196;4.428;2022-10-16T14:28:16;16.90;99.90
43946;DHT22;29599;51.196;4.428;2022-10-16T14:30:59;16.90;99.90
43946;DHT22;29599;51.196;4.428;2022-10-16T14:36:06;17.00;99.90
43946;DHT22;29599;51.196;4.428;2022-10-16T14:38:41;17.00;99.90
43946;DHT22;29599;51.196;4.428;2022-10-16T14:41:08;17.00;99.90
43946;DHT22;29599;51.196;4.428;2022-10-16T14:43:40;17.00;99.90
43946;DHT22;29599;51.196;4.428;2022-10-16T14:46:17;17.00;99.90
43946;DHT22;29599;51.196;4.428;2022-10-16T14:48:46;17.00;99.90
43946;DHT22;29599;51.196;4.428;2022-10-16T14:51:19;17.00;99.90
43946;DHT22;29599;51.196;4.428;2022-10-16T14:53:45;16.90;99.90
43946;DHT22;29599;51.196;4.428;2022-10-16T14:56:22;16.90;99.90
43946;DHT22;29599;51.196;4.428;2022-10-16T14:58:50;16.90;99.90
43946;DHT22;29599;51.196;4.428;2022-10-16T15:01:17;16.90;99.90
43946;DHT22;29599;51.196;4.428;2022-10-16T15:03:43;16.80;99.90
43946;DHT22;29599;51.196;4.428;2022-10-16T15:06:13;16.80;99.90
43946;DHT22;29599;51.196;4.428;2022-10-16T15:08:39;16.80;99.90
43946;DHT22;29599;51.196;4.428;2022-10-16T15:11:17;16.80;99.90
43946;DHT22;29599;51.196;4.428;2022-10-16T15:13:43;16.80;99.90
43946;DHT22;29599;51.196;4.428;2022-10-16T15:16:11;16.80;99.90
43946;DHT22;29599;51.196;4.428;2022-10-16T15:18:37;16.80;99.90
43946;DHT22;29599;51.196;4.428;2022-10-16T15:21:03;16.80;99.90
43946;DHT22;29599;51.196;4.428;2022-10-16T15:23:29;16.80;99.90
43946;DHT22;29599;51.196;4.428;2022-10-16T15:25:55;16.70;99.90
43946;DHT22;29599;51.196;4.428;2022-10-16T15:28:23;16.80;99.90
43946;DHT22;29599;51.196;4.428;2022-10-16T15:30:50;16.70;99.90
43946;DHT22;29599;51.196;4.428;2022-10-16T15:33:18;16.70;99.90
43946;DHT22;29599;51.196;4.428;2022-10-16T15:35:48;16.70;99.90
43946;DHT22;29599;51.196;4.428;2022-10-16T15:38:15;16.70;99.90
43946;DHT22;29599;51.196;4.428;2022-10-16T15:40:41;16.70;99.90
43946;DHT22;29599;51.196;4.428;2022-10-16T15:43:07;16.70;99.90
43946;DHT22;29599;51.196;4.428;2022-10-16T15:45:33;16.70;99.90
43946;DHT22;29599;51.196;4.428;2022-10-16T15:47:59;16.70;99.90
43946;DHT22;29599;51.196;4.428;2022-10-16T15:50:24;16.70;99.90
43946;DHT22;29599;51.196;4.428;2022-10-16T15:52:50;16.70;99.90
43946;DHT22;29599;51.196;4.428;2022-10-16T15:55:17;16.70;99.90
43946;DHT22;29599;51.196;4.428;2022-10-16T15:57:44;16.60;99.90
43946;DHT22;29599;51.196;4.428;2022-10-16T16:00:16;16.60;99.90
43946;DHT22;29599;51.196;4.428;2022-10-16T16:02:43;16.60;99.90
43946;DHT22;29599;51.196;4.428;2022-10-16T16:05:10;16.60;99.90
43946;DHT22;29599;51.196;4.428;2022-10-16T16:07:37;16.60;99.90
43946;DHT22;29599;51.196;4.428;2022-10-16T16:10:05;16.60;99.90
43946;DHT22;29599;51.196;4.428;2022-10-16T16:12:32;16.60;99.90
43946;DHT22;29599;51.196;4.428;2022-10-16T16:14:57;16.60;99.90
43946;DHT22;29599;51.196;4.428;2022-10-16T16:17:23;16.50;99.90
43946;DHT22;29599;51.196;4.428;2022-10-16T16:19:49;16.50;99.90
43946;DHT22;29599;51.196;4.428;2022-10-16T16:22:15;16.50;99.90
43946;DHT22;29599;51.196;4.428;2022-10-16T16:24:41;16.50;99.90
43946;DHT22;29599;51.196;4.428;2022-10-16T16:27:06;16.50;99.90
43946;DHT22;29599;51.196;4.428;2022-10-16T16:29:32;16.50;99.90
43946;DHT22;29599;51.196;4.428;2022-10-16T16:31:59;16.50;99.90
43946;DHT22;29599;51.196;4.428;2022-10-16T16:34:26;16.50;99.90
43946;DHT22;29599;51.196;4.428;2022-10-16T16:36:53;16.50;99.90
43946;DHT22;29599;51.196;4.428;2022-10-16T16:39:19;16.40;99.90
43946;DHT22;29599;51.196;4.428;2022-10-16T16:41:44;16.40;99.90
43946;DHT22;29599;51.196;4.428;2022-10-16T16:44:13;16.40;99.90
43946;DHT22;29599;51.196;4.428;2022-10-16T16:46:40;16.40;99.90
43946;DHT22;29599;51.196;4.428;2022-10-16T16:49:10;16.30;99.90
43946;DHT22;29599;51.196;4.428;2022-10-16T16:51:36;16.40;99.90
43946;DHT22;29599;51.196;4.428;2022-10-16T16:54:02;16.40;99.90
43946;DHT22;29599;51.196;4.428;2022-10-16T16:56:27;16.40;99.90
43946;DHT22;29599;51.196;4.428;2022-10-16T16:58:55;16.30;99.90
43946;DHT22;29599;51.196;4.428;2022-10-16T17:01:22;16.30;99.90
43946;DHT22;29599;51.196;4.428;2022-10-16T17:03:50;16.30;99.90
43946;DHT22;29599;51.196;4.428;2022-10-16T17:06:18;16.30;99.90
43946;DHT22;29599;51.196;4.428;2022-10-16T17:08:44;16.30;99.90
43946;DHT22;29599;51.196;4.428;2022-10-16T17:11:18;16.30;99.90
43946;DHT22;29599;51.196;4.428;2022-10-16T17:13:45;16.30;99.90
43946;DHT22;29599;51.196;4.428;2022-10-16T17:16:11;16.30;99.90
43946;DHT22;29599;51.196;4.428;2022-10-16T17:18:36;16.30;99.90
43946;DHT22;29599;51.196;4.428;2022-10-16T17:21:05;16.30;99.90
43946;DHT22;29599;51.196;4.428;2022-10-16T17:23:31;16.30;99.90